Time;durP1;ratioP1;P1;durP2;ratioP2;P2;SDS_P1;SDS_P2;PMS_P1;PMS_P2;Temp;Humidity;BMP_temperature;BMP_pressure;BME280_temperature;BME280_humidity;BME280_pressure;Samples;Min_cycle;Max_cycle;Signal;HPM_P1;HPM_P2
2022/11/07 00:02:15;;;;;;;1.30;1.00;;;;;;;7.70;100.00;95714.81;5098743;28;24469;-71
2022/11/07 00:04:42;;;;;;;1.77;0.88;;;;;;;7.66;100.00;95714.16;5102605;28;21580;-70
2022/11/07 00:07:09;;;;;;;1.70;0.90;;;;;;;7.72;100.00;95715.59;5099064;28;24512;-70
2022/11/07 00:09:36;;;;;;;1.13;0.70;;;;;;;7.74;100.00;95719.72;5103170;28;24456;-71
2022/11/07 00:12:04;;;;;;;1.58;1.20;;;;;;;7.77;100.00;95718.75;5088301;28;24982;-71
2022/11/07 00:14:31;;;;;;;1.47;1.00;;;;;;;7.79;100.00;95714.38;5099361;28;24437;-70
2022/11/07 00:16:57;;;;;;;1.70;1.03;;;;;;;7.80;100.00;95723.75;5087437;28;24453;-71
2022/11/07 00:19:24;;;;;;;1.38;0.90;;;;;;;7.84;100.00;95725.25;5102798;28;24849;-71
2022/11/07 00:21:50;;;;;;;1.83;0.98;;;;;;;7.86;100.00;95733.75;5097209;28;24942;-71
2022/11/07 00:24:19;;;;;;;1.20;0.90;;;;;;;7.87;100.00;95737.16;5094762;28;24461;-71
2022/11/07 00:26:46;;;;;;;1.52;1.00;;;;;;;7.88;100.00;95742.22;5079550;28;24438;-71
2022/11/07 00:29:16;;;;;;;1.17;0.90;;;;;;;7.90;100.00;95743.00;5098012;28;20790;-71
2022/11/07 00:31:42;;;;;;;1.13;0.80;;;;;;;7.95;100.00;95748.72;5088453;28;24438;-71
2022/11/07 00:34:09;;;;;;;2.42;0.90;;;;;;;7.95;100.00;95747.91;5103584;28;25078;-71
2022/11/07 00:36:35;;;;;;;2.22;0.80;;;;;;;7.97;100.00;95748.63;5099385;28;24453;-71
2022/11/07 00:39:02;;;;;;;1.50;0.70;;;;;;;7.96;100.00;95749.56;5103319;28;24548;-71
2022/11/07 00:41:28;;;;;;;3.35;0.70;;;;;;;8.03;100.00;95750.91;5106743;28;24433;-71
2022/11/07 00:43:55;;;;;;;1.40;0.80;;;;;;;8.07;100.00;95751.56;5102012;28;24433;-71
2022/11/07 00:46:23;;;;;;;1.45;0.80;;;;;;;8.06;100.00;95761.06;5105197;28;24432;-71
2022/11/07 00:48:50;;;;;;;1.20;0.70;;;;;;;8.07;100.00;95754.16;5109017;28;20886;-71
2022/11/07 00:51:19;;;;;;;0.80;0.60;;;;;;;8.09;100.00;95753.16;5109414;28;20811;-71
2022/11/07 00:53:47;;;;;;;0.93;0.65;;;;;;;8.12;100.00;95754.72;5100628;28;20777;-71
2022/11/07 00:56:15;;;;;;;0.88;0.50;;;;;;;8.12;100.00;95762.47;5097236;28;20789;-72
2022/11/07 00:58:43;;;;;;;1.20;0.67;;;;;;;8.17;100.00;95758.75;5104013;28;24619;-72
2022/11/07 01:01:11;;;;;;;1.08;0.65;;;;;;;8.17;100.00;95763.06;5094732;28;21362;-72
2022/11/07 01:06:27;;;;;;;1.23;0.75;;;;;;;8.19;100.00;95764.66;5085628;28;20769;-72
2022/11/07 01:08:55;;;;;;;1.30;0.70;;;;;;;8.24;100.00;95761.84;5084248;28;20760;-72
2022/11/07 01:11:22;;;;;;;2.03;1.00;;;;;;;8.23;100.00;95768.75;5099251;28;20866;-72
2022/11/07 01:13:49;;;;;;;3.13;0.80;;;;;;;8.28;100.00;95768.50;5099233;28;20785;-71
2022/11/07 01:16:15;;;;;;;0.80;0.60;;;;;;;8.27;100.00;95764.25;5106350;28;21325;-72
2022/11/07 01:18:43;;;;;;;2.83;0.80;;;;;;;8.27;100.00;95764.25;5103344;28;24446;-72
2022/11/07 01:21:10;;;;;;;1.40;0.65;;;;;;;8.26;100.00;95765.16;5104067;28;20808;-71
2022/11/07 01:23:37;;;;;;;0.65;0.57;;;;;;;8.25;100.00;95766.91;5100438;28;20771;-71
2022/11/07 01:26:05;;;;;;;3.03;0.85;;;;;;;8.31;100.00;95752.03;5101715;28;24428;-71
2022/11/07 01:28:31;;;;;;;1.10;0.70;;;;;;;8.29;100.00;95756.41;5103679;28;21413;-71
2022/11/07 01:30:58;;;;;;;1.30;0.68;;;;;;;8.23;100.00;95755.84;5106970;28;20811;-71
2022/11/07 01:33:24;;;;;;;2.05;0.95;;;;;;;8.22;100.00;95754.16;5101514;28;24429;-71
2022/11/07 01:35:52;;;;;;;1.40;0.70;;;;;;;8.29;100.00;95749.50;5082521;28;24792;-71
2022/11/07 01:38:19;;;;;;;3.25;0.95;;;;;;;8.28;100.00;95754.75;5103155;28;20777;-72
2022/11/07 01:43:42;;;;;;;1.23;0.82;;;;;;;8.20;100.00;95758.59;5099988;28;20724;-71
2022/11/07 01:46:09;;;;;;;1.70;1.00;;;;;;;8.22;100.00;95761.91;5094128;28;20654;-71
2022/11/07 01:48:35;;;;;;;2.42;1.00;;;;;;;8.23;100.00;95760.16;5099370;28;21358;-71
2022/11/07 01:51:04;;;;;;;6.85;0.75;;;;;;;8.22;100.00;95756.72;5103842;28;24472;-71
2022/11/07 01:53:31;;;;;;;1.40;0.98;;;;;;;8.21;100.00;95749.91;5101459;28;20773;-71
2022/11/07 01:55:57;;;;;;;1.98;0.93;;;;;;;8.19;100.00;95753.47;5102009;28;20770;-71
2022/11/07 01:58:24;;;;;;;2.28;1.00;;;;;;;8.24;100.00;95743.78;5097402;28;24429;-71
2022/11/07 02:00:50;;;;;;;7.45;1.10;;;;;;;8.24;100.00;95754.09;5084901;28;24799;-71
2022/11/07 02:03:20;;;;;;;2.80;1.10;;;;;;;8.34;100.00;95750.06;5099102;28;24434;-71
2022/11/07 02:05:52;;;;;;;2.50;1.00;;;;;;;8.37;100.00;95749.09;5087612;28;20765;-71
2022/11/07 02:08:21;;;;;;;2.78;0.95;;;;;;;8.38;100.00;95758.50;5096095;28;20731;-71
2022/11/07 02:10:49;;;;;;;1.55;0.95;;;;;;;8.48;100.00;95746.78;5097716;28;24975;-71
2022/11/07 02:13:22;;;;;;;3.85;1.15;;;;;;;8.48;100.00;95757.94;5089172;28;20812;-71
2022/11/07 02:15:49;;;;;;;2.17;1.10;;;;;;;8.49;100.00;95756.19;5089319;28;20676;-71
2022/11/07 02:18:16;;;;;;;2.08;1.08;;;;;;;8.49;100.00;95745.84;5097780;28;20768;-71
2022/11/07 02:20:43;;;;;;;1.37;0.90;;;;;;;8.51;100.00;95750.97;5103467;28;24446;-72
2022/11/07 02:23:15;;;;;;;2.58;1.17;;;;;;;8.51;100.00;95745.78;5104325;28;21365;-72
2022/11/07 02:25:42;;;;;;;1.55;1.20;;;;;;;8.49;100.00;95753.59;5095186;28;20720;-72
2022/11/07 02:28:11;;;;;;;4.40;1.02;;;;;;;8.50;100.00;95757.03;5104951;28;20808;-72
2022/11/07 02:30:38;;;;;;;1.90;1.02;;;;;;;8.48;100.00;95751.94;5091268;28;24438;-71
2022/11/07 02:33:16;;;;;;;3.53;1.23;;;;;;;8.46;100.00;95744.31;5095811;28;24434;-71
2022/11/07 02:35:45;;;;;;;2.97;1.15;;;;;;;8.46;100.00;95751.22;5102423;28;20705;-71
2022/11/07 02:38:20;;;;;;;2.38;1.30;;;;;;;8.49;100.00;95748.44;5099509;28;20827;-72
2022/11/07 02:40:51;;;;;;;2.45;1.05;;;;;;;8.52;100.00;95755.19;5094136;28;20771;-72
2022/11/07 02:43:20;;;;;;;4.45;1.30;;;;;;;8.49;100.00;95743.28;5101994;28;20724;-72
2022/11/07 02:45:48;;;;;;;2.33;1.00;;;;;;;8.54;100.00;95737.88;5108427;28;20890;-72
2022/11/07 02:48:15;;;;;;;3.45;1.10;;;;;;;8.52;100.00;95745.69;5102239;28;20763;-71
2022/11/07 02:50:43;;;;;;;1.83;1.13;;;;;;;8.56;100.00;95742.03;5103563;28;20787;-71
2022/11/07 02:53:09;;;;;;;2.38;1.20;;;;;;;8.53;100.00;95737.06;5095328;28;21383;-71
2022/11/07 02:55:36;;;;;;;2.17;1.00;;;;;;;8.53;100.00;95736.19;5105753;28;21339;-72
2022/11/07 02:58:04;;;;;;;3.45;1.10;;;;;;;8.54;100.00;95749.03;5098608;28;24460;-72
2022/11/07 03:00:30;;;;;;;2.85;1.27;;;;;;;8.54;100.00;95741.28;5105784;28;20814;-72
2022/11/07 03:02:57;;;;;;;4.32;1.00;;;;;;;8.58;100.00;95741.97;5100825;28;24441;-72
2022/11/07 03:05:23;;;;;;;2.75;1.10;;;;;;;8.56;100.00;95752.34;5100855;28;20762;-71
2022/11/07 03:07:50;;;;;;;5.97;1.25;;;;;;;8.57;100.00;95745.47;5088896;28;24994;-72
2022/11/07 03:10:17;;;;;;;1.60;1.00;;;;;;;8.56;100.00;95749.78;5106532;28;24434;-72
2022/11/07 03:12:44;;;;;;;3.10;1.40;;;;;;;8.59;100.00;95751.34;5103098;28;20777;-71
2022/11/07 03:15:13;;;;;;;2.42;1.13;;;;;;;8.60;100.00;95745.28;5104603;28;20777;-71
2022/11/07 03:17:39;;;;;;;2.15;1.25;;;;;;;8.67;100.00;95765.50;5105412;28;24457;-71
2022/11/07 03:20:08;;;;;;;3.78;1.45;;;;;;;8.69;100.00;95762.84;5085226;28;20775;-72
2022/11/07 03:22:35;;;;;;;4.05;1.15;;;;;;;8.64;100.00;95754.50;5095163;28;21325;-72
2022/11/07 03:25:01;;;;;;;2.80;1.20;;;;;;;8.69;100.00;95760.28;5109983;28;24437;-71
2022/11/07 03:27:28;;;;;;;2.67;1.43;;;;;;;8.70;100.00;95759.34;5097650;28;20805;-72
2022/11/07 03:29:54;;;;;;;2.30;1.13;;;;;;;8.71;100.00;95754.13;5106248;28;20775;-72
2022/11/07 03:32:22;;;;;;;1.52;1.00;;;;;;;8.75;100.00;95759.94;5099230;28;20765;-71
2022/11/07 03:34:49;;;;;;;4.78;1.50;;;;;;;8.77;100.00;95762.41;5100379;28;20860;-71
2022/11/07 03:37:16;;;;;;;2.92;1.30;;;;;;;8.79;100.00;95760.56;5103241;28;24994;-70
2022/11/07 03:39:43;;;;;;;1.90;1.10;;;;;;;8.76;100.00;95761.59;5100059;28;20768;-70
2022/11/07 03:42:09;;;;;;;2.88;1.20;;;;;;;8.78;100.00;95762.31;5102502;28;24441;-70
2022/11/07 03:44:36;;;;;;;3.53;1.40;;;;;;;8.73;100.00;95764.34;5100143;28;24442;-70
2022/11/07 03:47:02;;;;;;;3.00;1.27;;;;;;;8.72;100.00;95760.94;5099017;28;24440;-70
2022/11/07 03:49:30;;;;;;;2.85;1.40;;;;;;;8.72;100.00;95762.69;5102300;28;25021;-71
2022/11/07 03:51:57;;;;;;;2.00;1.23;;;;;;;8.73;100.00;95765.16;5103861;28;20774;-71
2022/11/07 03:54:23;;;;;;;2.05;1.15;;;;;;;8.73;100.00;95767.75;5101379;28;21143;-70
2022/11/07 03:56:50;;;;;;;3.05;1.20;;;;;;;8.75;100.00;95769.41;5089928;28;24511;-70
2022/11/07 03:59:16;;;;;;;1.75;1.05;;;;;;;8.71;100.00;95768.75;5100188;28;24442;-70
2022/11/07 04:01:43;;;;;;;4.10;1.38;;;;;;;8.74;100.00;95760.84;5094398;28;25075;-71
2022/11/07 04:04:10;;;;;;;3.47;1.13;;;;;;;8.76;100.00;95771.09;5102443;28;20768;-72
2022/11/07 04:06:38;;;;;;;2.90;1.30;;;;;;;8.71;100.00;95774.78;5100989;28;24977;-72
2022/11/07 04:09:05;;;;;;;2.63;1.30;;;;;;;8.67;100.00;95778.41;5100309;27;20803;-72
2022/11/07 04:19:43;;;;;;;2.70;1.27;;;;;;;8.64;100.00;95798.41;5094565;28;21241;-71
2022/11/07 04:22:11;;;;;;;2.38;1.08;;;;;;;8.62;100.00;95792.50;5095201;28;24434;-71
2022/11/07 04:24:38;;;;;;;3.83;1.23;;;;;;;8.56;100.00;95793.66;5101419;28;20779;-71
2022/11/07 04:29:48;;;;;;;2.88;1.10;;;;;;;8.50;100.00;95799.16;5102453;28;20743;-72
2022/11/07 04:32:15;;;;;;;3.93;1.30;;;;;;;8.53;100.00;95800.72;5097192;28;24455;-72
2022/11/07 04:34:41;;;;;;;4.13;1.07;;;;;;;8.51;100.00;95792.25;5101986;28;20839;-72
2022/11/07 04:37:08;;;;;;;3.20;1.30;;;;;;;8.46;100.00;95795.91;5106087;28;21286;-72
2022/11/07 04:39:35;;;;;;;6.68;1.50;;;;;;;8.46;100.00;95795.91;5100711;28;20775;-71
2022/11/07 04:42:02;;;;;;;2.05;1.10;;;;;;;8.45;100.00;95799.44;5102905;28;20810;-70
2022/11/07 04:44:28;;;;;;;5.07;1.20;;;;;;;8.46;100.00;95800.25;5095629;28;24479;-71
2022/11/07 04:46:55;;;;;;;3.13;1.30;;;;;;;8.45;100.00;95804.59;5101685;28;20763;-72
2022/11/07 04:49:21;;;;;;;3.65;1.40;;;;;;;8.47;100.00;95802.75;5106676;28;24863;-71
2022/11/07 04:51:49;;;;;;;2.85;1.00;;;;;;;8.47;100.00;95807.06;5087046;28;20774;-72
2022/11/07 04:54:16;;;;;;;2.47;1.38;;;;;;;8.48;100.00;95808.72;5101692;28;20811;-71
2022/11/07 04:56:43;;;;;;;3.83;1.43;;;;;;;8.43;100.00;95811.56;5107199;28;20766;-71
2022/11/07 04:59:10;;;;;;;2.20;1.33;;;;;;;8.48;100.00;95803.56;5093117;28;21167;-71
2022/11/07 05:01:36;;;;;;;3.78;1.20;;;;;;;8.42;100.00;95803.91;5096611;28;24436;-71
2022/11/07 05:04:03;;;;;;;2.45;1.30;;;;;;;8.42;100.00;95797.00;5094741;28;25684;-71
2022/11/07 05:06:34;;;;;;;4.25;1.40;;;;;;;8.37;100.00;95808.44;5100496;28;24440;-71
2022/11/07 05:09:01;;;;;;;4.30;1.50;;;;;;;8.37;100.00;95809.31;5098432;28;20682;-71
2022/11/07 05:11:27;;;;;;;6.10;1.52;;;;;;;8.36;100.00;95807.63;5093347;28;24803;-71
2022/11/07 05:13:55;;;;;;;2.90;1.45;;;;;;;8.39;100.00;95816.97;5091189;28;20780;-71
2022/11/07 05:16:22;;;;;;;4.80;1.93;;;;;;;8.35;100.00;95808.53;5090147;28;24433;-72
2022/11/07 05:18:48;;;;;;;4.50;2.10;;;;;;;8.38;100.00;95808.41;5093128;28;20796;-71
2022/11/07 05:21:14;;;;;;;3.67;1.70;;;;;;;8.38;100.00;95808.41;5081288;28;24439;-71
2022/11/07 05:23:40;;;;;;;6.10;1.27;;;;;;;8.38;100.00;95823.91;5087369;28;21398;-71
2022/11/07 05:26:06;;;;;;;3.23;1.33;;;;;;;8.42;100.00;95812.50;5084794;28;24445;-71
2022/11/07 05:28:33;;;;;;;5.03;1.50;;;;;;;8.41;100.00;95808.22;5104382;28;20773;-72
2022/11/07 05:31:03;;;;;;;3.78;1.23;;;;;;;8.39;100.00;95815.22;5088456;28;20805;-72
2022/11/07 05:33:30;;;;;;;3.35;1.33;;;;;;;8.37;100.00;95813.59;5089740;28;20807;-72
2022/11/07 05:36:07;;;;;;;2.22;1.10;;;;;;;8.35;100.00;95807.72;5096860;28;24438;-72
2022/11/07 05:38:34;;;;;;;4.32;1.33;;;;;;;8.31;100.00;95807.03;5096649;28;20758;-72
2022/11/07 05:41:03;;;;;;;4.13;1.30;;;;;;;8.35;100.00;95808.53;5103277;28;24440;-72
2022/11/07 05:43:30;;;;;;;4.35;1.25;;;;;;;8.34;100.00;95809.44;5098535;28;21278;-72
2022/11/07 05:45:59;;;;;;;5.10;1.38;;;;;;;8.34;100.00;95817.16;5089952;28;24449;-72
2022/11/07 05:48:29;;;;;;;3.72;1.65;;;;;;;8.34;100.00;95819.75;5094320;28;20759;-72
2022/11/07 05:50:56;;;;;;;6.03;1.42;;;;;;;8.39;100.00;95819.56;5097043;28;20772;-72
2022/11/07 05:53:24;;;;;;;2.88;1.17;;;;;;;8.49;100.00;95828.44;5088651;28;24454;-72
2022/11/07 05:55:51;;;;;;;3.53;1.20;;;;;;;8.47;100.00;95819.97;5100517;28;20802;-72
2022/11/07 05:58:18;;;;;;;3.53;1.30;;;;;;;8.47;100.00;95825.13;5100364;28;20792;-72
2022/11/07 06:00:45;;;;;;;3.67;1.42;;;;;;;8.49;100.00;95823.28;5104315;28;21177;-71
2022/11/07 06:03:12;;;;;;;5.35;1.30;;;;;;;8.47;100.00;95818.22;5105080;28;20774;-71
2022/11/07 06:05:41;;;;;;;4.55;1.63;;;;;;;8.46;100.00;95819.16;5103659;28;20763;-71
2022/11/07 06:08:10;;;;;;;4.40;1.50;;;;;;;8.48;100.00;95821.63;5093414;28;20765;-71
2022/11/07 06:10:37;;;;;;;3.28;1.30;;;;;;;8.47;100.00;95819.97;5097178;28;20729;-71
2022/11/07 06:13:06;;;;;;;3.87;1.33;;;;;;;8.50;100.00;95826.72;5103409;28;25106;-71
2022/11/07 06:15:36;;;;;;;3.42;1.50;;;;;;;8.50;100.00;95837.06;5097899;28;24438;-72
2022/11/07 06:18:04;;;;;;;7.60;1.80;;;;;;;8.50;100.00;95842.22;5101851;28;20775;-71
2022/11/07 06:20:31;;;;;;;4.03;2.33;;;;;;;8.51;100.00;95834.38;5094795;28;20816;-72
2022/11/07 06:22:59;;;;;;;3.72;1.88;;;;;;;8.47;100.00;95830.31;5097708;28;20773;-71
2022/11/07 06:25:26;;;;;;;4.82;1.88;;;;;;;8.47;100.00;95835.47;5087487;28;21128;-72
2022/11/07 06:27:53;;;;;;;3.10;1.50;;;;;;;8.45;100.00;95832.97;5093593;28;20767;-71
2022/11/07 06:30:20;;;;;;;4.05;1.33;;;;;;;8.45;100.00;95838.13;5103766;28;21692;-71
2022/11/07 06:32:46;;;;;;;2.42;1.40;;;;;;;8.48;100.00;95839.69;5098700;28;24441;-72
2022/11/07 06:35:13;;;;;;;4.07;1.58;;;;;;;8.46;100.00;95837.22;5076584;28;24441;-72
2022/11/07 06:37:39;;;;;;;6.30;1.53;;;;;;;8.45;100.00;95843.31;5091306;28;25052;-72
2022/11/07 06:40:09;;;;;;;4.67;1.70;;;;;;;8.44;100.00;95844.19;5098500;28;20868;-72
2022/11/07 06:42:35;;;;;;;3.35;1.48;;;;;;;8.44;100.00;95844.19;5097091;28;20770;-71
2022/11/07 06:45:02;;;;;;;4.55;1.63;;;;;;;8.43;100.00;95846.88;5088112;28;20782;-71
2022/11/07 06:47:28;;;;;;;5.13;1.95;;;;;;;8.40;100.00;95854.78;5088359;28;24434;-74
2022/11/07 06:49:55;;;;;;;5.10;1.33;;;;;;;8.45;100.00;95853.63;5087100;28;24439;-72
2022/11/07 06:52:21;;;;;;;3.17;1.42;;;;;;;8.44;100.00;95859.69;5098933;28;20777;-72
2022/11/07 06:54:48;;;;;;;3.38;1.20;;;;;;;8.43;100.00;95850.28;5096967;28;20769;-71
2022/11/07 06:57:16;;;;;;;3.78;1.45;;;;;;;8.47;100.00;95859.53;5080346;28;24438;-71
2022/11/07 06:59:42;;;;;;;3.60;1.35;;;;;;;8.45;100.00;95860.50;5100413;28;20818;-73
2022/11/07 07:02:11;;;;;;;6.57;1.70;;;;;;;8.45;100.00;95863.09;5100632;28;24429;-74
2022/11/07 07:04:37;;;;;;;5.30;2.40;;;;;;;8.42;100.00;95874.44;5092163;28;21390;-73
2022/11/07 07:07:04;;;;;;;3.28;1.45;;;;;;;8.45;100.00;95881.16;5095743;28;24435;-72
2022/11/07 07:09:32;;;;;;;5.07;1.95;;;;;;;8.42;100.00;95878.75;5091858;28;24435;-72
2022/11/07 07:11:58;;;;;;;4.35;2.10;;;;;;;8.41;100.00;95882.22;5103435;28;20774;-72
2022/11/07 07:14:26;;;;;;;3.75;1.70;;;;;;;8.43;100.00;95880.41;5098830;28;24441;-72
2022/11/07 07:16:52;;;;;;;4.20;2.00;;;;;;;8.39;100.00;95882.31;5093879;28;24808;-72
2022/11/07 07:19:19;;;;;;;4.45;2.08;;;;;;;8.43;100.00;95888.16;5102363;28;24464;-72
2022/11/07 07:21:45;;;;;;;4.53;1.85;;;;;;;8.44;100.00;95888.06;5105948;28;24434;-72
2022/11/07 07:24:12;;;;;;;3.70;1.48;;;;;;;8.45;100.00;95891.47;5111166;28;25021;-72
2022/11/07 07:26:39;;;;;;;3.45;1.45;;;;;;;8.43;100.00;95890.75;5101722;28;21146;-71
2022/11/07 07:29:05;;;;;;;2.65;1.30;;;;;;;8.43;100.00;95891.56;5103285;28;20774;-71
2022/11/07 07:31:33;;;;;;;4.07;1.45;;;;;;;8.46;100.00;95894.00;5108595;28;25030;-71
2022/11/07 07:34:00;;;;;;;3.47;1.50;;;;;;;8.48;100.00;95893.91;5108548;28;20814;-71
2022/11/07 07:36:26;;;;;;;2.20;1.00;;;;;;;8.52;100.00;95892.81;5098692;28;24460;-71
2022/11/07 07:38:53;;;;;;;4.43;1.33;;;;;;;8.58;100.00;95896.84;5104617;28;20790;-70
2022/11/07 07:41:20;;;;;;;3.00;1.30;;;;;;;8.59;100.00;95888.19;5103444;28;20774;-72
2022/11/07 07:43:46;;;;;;;3.93;1.20;;;;;;;8.66;100.00;95894.69;5105212;28;20781;-71
2022/11/07 07:46:17;;;;;;;3.55;1.60;;;;;;;8.75;100.00;95891.63;5105101;28;24440;-70
2022/11/07 07:48:45;;;;;;;5.10;1.45;;;;;;;8.79;100.00;95887.09;5102651;28;24879;-70
2022/11/07 07:51:11;;;;;;;3.03;1.45;;;;;;;8.80;100.00;95894.78;5112102;28;20803;-71
2022/11/07 07:53:38;;;;;;;2.65;1.35;;;;;;;8.85;100.00;95889.38;5102826;28;25006;-70
2022/11/07 07:56:06;;;;;;;4.45;1.60;;;;;;;8.83;100.00;95886.88;5099320;28;20776;-71
2022/11/07 07:58:33;;;;;;;3.35;1.80;;;;;;;8.85;100.00;95887.63;5089608;28;24557;-70
2022/11/07 08:00:59;;;;;;;4.63;1.75;;;;;;;8.87;100.00;95888.38;5103571;28;20773;-70
2022/11/07 08:03:27;;;;;;;4.10;1.83;;;;;;;8.94;100.00;95892.31;5101953;28;24484;-70
2022/11/07 08:05:57;;;;;;;9.23;1.80;;;;;;;9.04;100.00;95889.19;5104937;28;24803;-71
2022/11/07 08:08:25;;;;;;;3.92;1.50;;;;;;;9.01;100.00;95887.63;5100578;28;20772;-71
2022/11/07 08:10:53;;;;;;;7.90;1.90;;;;;;;9.02;100.00;95891.88;5106394;28;20776;-71
2022/11/07 08:13:21;;;;;;;4.68;1.80;;;;;;;9.08;100.00;95893.28;5102950;28;24993;-71
2022/11/07 08:15:48;;;;;;;6.45;1.48;;;;;;;9.08;100.00;95890.69;5097899;28;24475;-70
2022/11/07 08:18:15;;;;;;;4.63;1.58;;;;;;;9.14;100.00;95891.19;5106283;28;20786;-71
2022/11/07 08:20:42;;;;;;;4.63;1.40;;;;;;;9.18;100.00;95899.63;5105122;28;24483;-71
2022/11/07 08:23:10;;;;;;;4.72;1.70;;;;;;;9.22;100.00;95898.53;5102319;28;20770;-71
2022/11/07 08:25:37;;;;;;;6.18;1.80;;;;;;;9.25;100.00;95903.53;5099349;28;20803;-70
2022/11/07 08:28:04;;;;;;;7.57;2.00;;;;;;;9.23;100.00;95899.34;5090929;28;21313;-72
2022/11/07 08:30:31;;;;;;;6.97;2.13;;;;;;;9.27;100.00;95899.13;5102403;28;20775;-71
2022/11/07 08:32:59;;;;;;;4.90;1.80;;;;;;;9.33;100.00;95896.19;5109689;28;24425;-71
2022/11/07 08:35:26;;;;;;;6.63;1.67;;;;;;;9.29;100.00;95905.03;5097826;28;25024;-70
2022/11/07 08:37:53;;;;;;;3.80;1.60;;;;;;;9.34;100.00;95899.59;5106756;28;25005;-70
2022/11/07 08:40:21;;;;;;;5.72;1.90;;;;;;;9.40;100.00;95889.75;5102299;28;20778;-71
2022/11/07 08:42:47;;;;;;;6.30;1.60;;;;;;;9.50;100.00;95897.00;5105704;28;21033;-71
2022/11/07 08:45:14;;;;;;;5.00;1.88;;;;;;;9.60;100.00;95892.94;5106490;28;20766;-71
2022/11/07 08:47:41;;;;;;;4.00;1.57;;;;;;;9.65;100.00;95891.78;5100220;28;24475;-70
2022/11/07 08:50:08;;;;;;;4.47;1.48;;;;;;;9.70;100.00;95896.69;5102910;28;20778;-71
2022/11/07 08:52:35;;;;;;;5.78;1.80;;;;;;;9.79;100.00;95897.91;5097714;28;24440;-70
2022/11/07 08:55:01;;;;;;;5.40;1.88;;;;;;;9.86;100.00;95897.50;5102143;28;24593;-71
2022/11/07 08:57:29;;;;;;;5.85;1.58;;;;;;;9.92;100.00;95899.69;5107435;28;24438;-70
2022/11/07 08:59:56;;;;;;;7.78;1.80;;;;;;;9.91;100.00;95908.38;5103963;28;20801;-71
2022/11/07 09:02:22;;;;;;;5.68;1.80;;;;;;;9.93;100.00;95910.88;5108342;28;25004;-71
2022/11/07 09:04:49;;;;;;;5.78;1.60;;;;;;;9.93;100.00;95901.34;5098672;28;24437;-70
2022/11/07 09:07:16;;;;;;;8.82;1.90;;;;;;;10.01;100.00;95897.50;5101109;28;24440;-70
2022/11/07 09:09:42;;;;;;;10.52;1.73;;;;;;;10.08;100.00;95911.75;5098041;28;24488;-71
2022/11/07 09:12:09;;;;;;;4.53;1.63;;;;;;;10.09;100.00;95916.84;5106388;28;25017;-71
2022/11/07 09:14:37;;;;;;;4.07;1.52;;;;;;;10.23;100.00;95912.59;5096548;28;24434;-70
2022/11/07 09:17:03;;;;;;;4.10;1.63;;;;;;;10.25;100.00;95908.16;5100942;28;24429;-70
2022/11/07 09:19:30;;;;;;;4.35;1.52;;;;;;;10.34;100.00;95913.66;5102156;28;24462;-70
2022/11/07 09:21:57;;;;;;;5.22;1.60;;;;;;;10.34;100.00;95916.25;5106685;28;24882;-71
2022/11/07 09:24:23;;;;;;;6.63;1.70;;;;;;;10.33;100.00;95919.75;5087767;28;25002;-71
2022/11/07 09:26:50;;;;;;;5.38;1.75;;;;;;;10.37;100.00;95920.41;5090856;28;24437;-71
2022/11/07 09:29:17;;;;;;;6.28;1.73;;;;;;;10.35;100.00;95919.69;5097414;28;24800;-71
2022/11/07 09:31:44;;;;;;;5.07;1.60;;;;;;;10.34;100.00;95918.00;5100203;28;24438;-71
2022/11/07 09:34:11;;;;;;;5.93;1.70;;;;;;;10.33;100.00;95922.34;5104052;28;24448;-71
2022/11/07 09:36:37;;;;;;;5.90;1.60;;;;;;;10.40;100.00;95928.00;5106950;28;24430;-71
2022/11/07 09:39:04;;;;;;;5.45;1.83;;;;;;;10.41;100.00;95925.31;5099389;28;24469;-70
2022/11/07 09:41:39;;;;;;;4.22;1.50;;;;;;;10.49;100.00;95924.00;5105486;28;24426;-71
2022/11/07 09:44:15;;;;;;;10.73;1.50;;;;;;;10.61;100.00;95929.31;5101412;28;24830;-70
2022/11/07 09:46:55;;;;;;;7.53;1.95;;;;;;;10.68;100.00;95932.38;5095204;28;24446;-71
2022/11/07 09:49:28;;;;;;;8.90;2.00;;;;;;;10.74;100.00;95928.56;5096141;28;24519;-70
2022/11/07 09:52:01;;;;;;;7.25;1.73;;;;;;;10.75;100.00;95923.28;5086256;28;24425;-70
2022/11/07 09:54:31;;;;;;;5.85;2.00;;;;;;;10.80;100.00;95926.44;5101461;28;24440;-71
2022/11/07 09:56:59;;;;;;;6.28;1.63;;;;;;;10.88;100.00;95925.97;5101968;28;24997;-70
2022/11/07 09:59:33;;;;;;;3.60;1.38;;;;;;;10.99;100.00;95922.72;5101546;28;24511;-71
2022/11/07 10:02:03;;;;;;;7.82;1.67;;;;;;;10.96;100.00;95921.13;5094864;28;24434;-71
2022/11/07 10:04:30;;;;;;;5.60;1.80;;;;;;;10.99;100.00;95920.94;5091212;28;25229;-70
2022/11/07 10:07:01;;;;;;;4.73;1.60;;;;;;;11.02;100.00;95922.53;5103670;28;24463;-70
2022/11/07 10:09:39;;;;;;;4.05;1.45;;;;;;;11.00;100.00;95916.59;5093268;28;24442;-71
2022/11/07 10:12:16;;;;;;;8.73;1.95;;;;;;;11.00;100.00;95920.00;5109123;28;24433;-72
2022/11/07 10:14:52;;;;;;;4.60;1.53;;;;;;;11.10;100.00;95921.09;5108671;28;25013;-71
2022/11/07 10:17:25;;;;;;;4.63;1.30;;;;;;;11.22;100.00;95918.69;5100757;28;24449;-71
2022/11/07 10:20:11;;;;;;;4.10;1.50;;;;;;;11.25;100.00;95924.50;5081158;28;24465;-72
2022/11/07 10:22:49;;;;;;;3.70;1.42;;;;;;;11.26;100.00;95915.78;5102092;28;24510;-71
2022/11/07 10:25:28;;;;;;;3.83;1.40;;;;;;;11.30;100.00;95917.25;5101118;28;24433;-71
2022/11/07 10:28:13;;;;;;;5.03;1.67;;;;;;;11.24;100.00;95914.25;5092382;28;24441;-71
2022/11/07 10:30:42;;;;;;;4.53;1.60;;;;;;;11.27;100.00;95924.38;5099839;28;24445;-70
2022/11/07 10:33:20;;;;;;;3.42;1.38;;;;;;;11.18;100.00;95915.44;5106091;28;25005;-72
2022/11/07 10:35:53;;;;;;;8.32;1.42;;;;;;;11.27;100.00;95912.28;5096795;28;24438;-72
2022/11/07 10:38:25;;;;;;;4.45;1.50;;;;;;;11.12;100.00;95910.63;5099490;28;25085;-71
2022/11/07 10:40:52;;;;;;;4.30;1.63;;;;;;;11.20;100.00;95904.97;5092024;28;24434;-71
2022/11/07 10:43:27;;;;;;;4.13;1.35;;;;;;;11.18;100.00;95902.47;5105923;28;24803;-71
2022/11/07 10:45:55;;;;;;;5.40;1.33;;;;;;;11.11;100.00;95907.22;5091673;28;24442;-70
2022/11/07 10:48:24;;;;;;;4.63;1.40;;;;;;;11.16;100.00;95896.59;5096489;28;24441;-71
2022/11/07 10:50:52;;;;;;;3.47;1.30;;;;;;;11.17;100.00;95894.81;5086501;28;24806;-73
2022/11/07 10:53:21;;;;;;;4.88;1.40;;;;;;;11.21;100.00;95891.94;5108831;28;24445;-71
2022/11/07 10:55:49;;;;;;;4.53;1.63;;;;;;;11.23;100.00;95892.66;5095568;28;25005;-72
2022/11/07 10:58:19;;;;;;;7.43;1.40;;;;;;;11.29;100.00;95902.63;5101399;28;25018;-73
2022/11/07 11:00:58;;;;;;;6.65;1.55;;;;;;;11.38;100.00;95898.63;5106235;28;25047;-72
2022/11/07 11:03:29;;;;;;;4.45;1.40;;;;;;;11.47;100.00;95894.63;5103012;28;24433;-72
2022/11/07 11:05:55;;;;;;;7.68;1.80;;;;;;;11.62;100.00;95909.19;5092072;28;24429;-73
2022/11/07 11:08:23;;;;;;;6.75;1.30;;;;;;;11.77;100.00;95905.59;5097664;28;24434;-72
2022/11/07 11:10:50;;;;;;;5.17;1.47;;;;;;;11.82;100.00;95908.72;5104089;28;24441;-71
2022/11/07 11:13:27;;;;;;;5.97;1.67;;;;;;;11.86;100.00;95902.44;5098149;28;24803;-71
2022/11/07 11:15:55;;;;;;;4.80;1.40;;;;;;;11.91;100.00;95904.72;5099268;28;25052;-71
2022/11/07 11:18:22;;;;;;;5.45;1.50;;;;;;;11.92;100.00;95906.38;5108680;28;25025;-71
2022/11/07 11:20:57;;;;;;;4.13;1.23;;;;;;;11.93;100.00;95907.22;5100283;28;24430;-71
2022/11/07 11:23:26;;;;;;;5.28;1.17;;;;;;;11.92;100.00;95906.38;5106576;28;24466;-72
2022/11/07 11:26:00;;;;;;;5.53;1.43;;;;;;;12.01;100.00;95897.16;5090612;28;24438;-71
2022/11/07 11:28:33;;;;;;;4.03;1.40;;;;;;;11.97;100.00;95887.91;5101970;28;24433;-72
2022/11/07 11:31:06;;;;;;;5.05;1.23;;;;;;;12.04;100.00;95891.75;5098736;28;24490;-71
2022/11/07 11:33:39;;;;;;;5.20;1.20;;;;;;;12.08;100.00;95886.25;5100463;28;24433;-71
2022/11/07 11:36:14;;;;;;;3.05;1.13;;;;;;;12.07;100.00;95884.59;5102999;28;24441;-72
2022/11/07 11:38:43;;;;;;;5.03;1.50;;;;;;;12.07;100.00;95879.41;5088271;28;25049;-72
2022/11/07 11:41:19;;;;;;;5.85;1.45;;;;;;;12.10;100.00;95880.97;5102424;28;24433;-72
2022/11/07 11:43:50;;;;;;;3.92;1.27;;;;;;;12.17;100.00;95876.22;5099198;28;24445;-72
2022/11/07 11:46:25;;;;;;;7.03;1.60;;;;;;;12.26;100.00;95885.97;5100399;28;24440;-72
2022/11/07 11:48:56;;;;;;;3.13;1.20;;;;;;;12.26;100.00;95878.16;5105836;28;24441;-72
2022/11/07 11:51:36;;;;;;;4.78;1.25;;;;;;;12.33;100.00;95876.81;5101289;28;24444;-72
2022/11/07 11:54:03;;;;;;;4.30;1.50;;;;;;;12.35;100.00;95877.56;5094836;28;24788;-72